Time;durP1;ratioP1;P1;durP2;ratioP2;P2;SDS_P1;SDS_P2;PMS_P1;PMS_P2;Temp;Humidity;BMP_temperature;BMP_pressure;BME280_temperature;BME280_humidity;BME280_pressure;Samples;Min_cycle;Max_cycle;Signal;HPM_P1;HPM_P2
2022/04/27 00:01:38;;;;;;;4.75;2.58;;;;;;;;;;1746471;82;21080;-86
2022/04/27 00:04:05;;;;;;;3.33;2.42;;;;;;;;;;1746425;82;21175;-86
2022/04/27 00:06:32;;;;;;;3.52;2.60;;;;;;;;;;1748419;81;21049;-87
2022/04/27 00:08:59;;;;;;;3.15;2.35;;;;;;;;;;1774137;81;21056;-84
2022/04/27 00:11:26;;;;;;;3.40;2.45;;;;;;;;;;1778305;81;21064;-87
2022/04/27 00:13:54;;;;;;;3.35;2.45;;;;;;;;;;1776872;80;21580;-87
2022/04/27 00:16:20;;;;;;;4.03;2.60;;;;;;;;;;1777416;81;21044;-88
2022/04/27 00:18:47;;;;;;;4.80;2.58;;;;;;;;;;1747856;80;21044;-83
2022/04/27 00:21:14;;;;;;;3.15;2.37;;;;;;;;;;1746633;81;21061;-84
2022/04/27 00:23:42;;;;;;;4.75;2.67;;;;;;;;;;1770984;81;21116;-88
2022/04/27 00:26:09;;;;;;;5.15;2.83;;;;;;;;;;1777490;80;21127;-87
2022/04/27 00:28:35;;;;;;;3.62;2.70;;;;;;;;;;1776448;81;21069;-87
2022/04/27 00:31:03;;;;;;;3.27;2.37;;;;;;;;;;1777276;80;21477;-88
2022/04/27 00:33:31;;;;;;;3.77;2.67;;;;;;;;;;1776749;80;21060;-88
2022/04/27 00:35:58;;;;;;;3.58;2.65;;;;;;;;;;1774638;80;21095;-88
2022/04/27 00:38:24;;;;;;;3.98;2.60;;;;;;;;;;1746746;82;21031;-90
2022/04/27 00:40:51;;;;;;;3.67;2.70;;;;;;;;;;1746279;82;21041;-88
2022/04/27 00:43:35;;;;;;;4.42;2.80;;;;;;;;;;1758437;81;21600;-86
2022/04/27 00:46:01;;;;;;;4.42;2.77;;;;;;;;;;1777210;81;21068;-85
2022/04/27 00:48:29;;;;;;;6.83;3.20;;;;;;;;;;1776770;80;21056;-84
2022/04/27 00:50:59;;;;;;;4.97;3.42;;;;;;;;;;1776157;80;21025;-82
2022/04/27 00:53:25;;;;;;;5.20;3.27;;;;;;;;;;1777101;81;21060;-82
2022/04/27 00:55:51;;;;;;;5.40;3.15;;;;;;;;;;1776791;80;21032;-82
2022/04/27 00:58:17;;;;;;;4.10;3.10;;;;;;;;;;1777422;81;20974;-83
2022/04/27 01:03:36;;;;;;;4.28;2.90;;;;;;;;;;1712782;80;21147;-81
2022/04/27 01:06:04;;;;;;;3.95;2.80;;;;;;;;;;1729244;83;21077;-81
2022/04/27 01:08:31;;;;;;;4.17;3.00;;;;;;;;;;1732732;83;21560;-81
2022/04/27 01:10:59;;;;;;;5.30;3.20;;;;;;;;;;1731647;83;20979;-85
2022/04/27 01:13:27;;;;;;;3.80;3.00;;;;;;;;;;1732754;83;21037;-84
2022/04/27 01:15:55;;;;;;;3.72;2.70;;;;;;;;;;1702523;83;21278;-83
2022/04/27 01:18:22;;;;;;;4.78;3.30;;;;;;;;;;1697630;84;21054;-84
2022/04/27 01:20:50;;;;;;;5.05;3.25;;;;;;;;;;1697406;84;21565;-83
2022/04/27 01:23:17;;;;;;;4.78;3.50;;;;;;;;;;1697682;84;21039;-83
2022/04/27 01:25:48;;;;;;;4.50;3.10;;;;;;;;;;1701293;83;21082;-83
2022/04/27 01:28:18;;;;;;;5.00;3.60;;;;;;;;;;1696870;84;21018;-83
2022/04/27 01:30:45;;;;;;;4.05;2.87;;;;;;;;;;1721893;83;22093;-83
2022/04/27 01:33:12;;;;;;;4.67;3.12;;;;;;;;;;1711502;84;21030;-82
2022/04/27 01:35:40;;;;;;;4.03;3.17;;;;;;;;;;1732109;83;21015;-83
2022/04/27 01:38:07;;;;;;;4.53;3.00;;;;;;;;;;1732311;83;21482;-84
2022/04/27 01:40:34;;;;;;;4.50;2.92;;;;;;;;;;1731062;83;21613;-83
2022/04/27 01:43:00;;;;;;;3.50;2.83;;;;;;;;;;1731798;83;21011;-83
2022/04/27 01:45:26;;;;;;;4.45;2.95;;;;;;;;;;1731659;83;21030;-84
2022/04/27 01:47:53;;;;;;;5.05;3.20;;;;;;;;;;1731989;83;22183;-84
2022/04/27 01:50:20;;;;;;;6.60;2.98;;;;;;;;;;1731858;83;21003;-84
2022/04/27 01:55:35;;;;;;;3.87;2.65;;;;;;;;;;1723130;83;21024;-84
2022/04/27 01:58:01;;;;;;;4.03;3.02;;;;;;;;;;1664850;85;21033;-86
2022/04/27 02:00:28;;;;;;;4.75;3.40;;;;;;;;;;1677449;84;21041;-84
2022/04/27 02:02:54;;;;;;;4.92;3.05;;;;;;;;;;1677334;84;21565;-85
2022/04/27 02:05:21;;;;;;;5.65;3.37;;;;;;;;;;1695309;84;21034;-86
2022/04/27 02:07:48;;;;;;;6.40;3.30;;;;;;;;;;1699410;83;21037;-85
2022/04/27 02:10:14;;;;;;;5.90;3.67;;;;;;;;;;1699717;84;21133;-85
2022/04/27 02:12:42;;;;;;;9.03;3.87;;;;;;;;;;1670846;85;21040;-84
2022/04/27 02:15:10;;;;;;;5.40;3.42;;;;;;;;;;1698948;84;21021;-84
2022/04/27 02:17:39;;;;;;;5.53;3.50;;;;;;;;;;1675225;85;21534;-83
2022/04/27 02:20:05;;;;;;;4.78;3.08;;;;;;;;;;1670795;86;21029;-84
2022/04/27 02:22:34;;;;;;;4.65;2.98;;;;;;;;;;1716589;83;21135;-83
2022/04/27 02:25:02;;;;;;;6.17;3.20;;;;;;;;;;1716469;83;21488;-83
2022/04/27 02:27:29;;;;;;;4.67;2.67;;;;;;;;;;1715407;83;21522;-85
2022/04/27 02:29:55;;;;;;;3.92;2.77;;;;;;;;;;1716401;83;21080;-84
2022/04/27 02:32:24;;;;;;;3.83;3.00;;;;;;;;;;1747449;82;21043;-84
2022/04/27 02:34:51;;;;;;;4.08;2.60;;;;;;;;;;1748524;82;20969;-83
2022/04/27 02:37:17;;;;;;;4.15;2.75;;;;;;;;;;1748070;82;21031;-83
2022/04/27 02:39:46;;;;;;;5.92;3.58;;;;;;;;;;1730488;82;21087;-83
2022/04/27 02:42:12;;;;;;;5.47;2.77;;;;;;;;;;1741876;80;20990;-87
2022/04/27 02:44:39;;;;;;;2.67;2.22;;;;;;;;;;1744861;82;21057;-88
2022/04/27 02:47:05;;;;;;;3.52;2.40;;;;;;;;;;1744626;82;21528;-86
2022/04/27 02:52:01;;;;;;;5.75;3.10;;;;;;;;;;1676350;82;21073;-88
2022/04/27 02:54:32;;;;;;;3.65;2.70;;;;;;;;;;1716347;82;21026;-86
2022/04/27 02:57:00;;;;;;;3.72;2.60;;;;;;;;;;1744386;82;21048;-86
2022/04/27 02:59:28;;;;;;;4.25;2.70;;;;;;;;;;1747574;82;21032;-87
2022/04/27 03:01:56;;;;;;;4.80;2.55;;;;;;;;;;1748591;82;21039;-87
2022/04/27 03:04:23;;;;;;;4.17;2.72;;;;;;;;;;1748167;81;21863;-87
2022/04/27 03:06:50;;;;;;;3.67;2.83;;;;;;;;;;1748381;82;21036;-87
2022/04/27 03:09:16;;;;;;;3.37;2.50;;;;;;;;;;1746252;82;21033;-86
2022/04/27 03:11:44;;;;;;;3.33;2.62;;;;;;;;;;1745150;82;21029;-87
2022/04/27 03:14:21;;;;;;;4.35;2.90;;;;;;;;;;1743320;82;21104;-88
2022/04/27 03:16:52;;;;;;;3.15;2.70;;;;;;;;;;1740361;81;21052;-90
2022/04/27 03:19:19;;;;;;;5.30;2.90;;;;;;;;;;1738341;82;20959;-89
2022/04/27 03:21:45;;;;;;;4.25;2.67;;;;;;;;;;1744947;81;21542;-90
2022/04/27 03:24:13;;;;;;;3.75;2.62;;;;;;;;;;1761000;81;21060;-89
2022/04/27 03:26:39;;;;;;;4.17;2.70;;;;;;;;;;1761419;81;21516;-89
2022/04/27 03:29:05;;;;;;;4.45;3.08;;;;;;;;;;1761343;81;21535;-89
2022/04/27 03:31:32;;;;;;;3.50;2.55;;;;;;;;;;1761484;81;20983;-88
2022/04/27 03:34:00;;;;;;;3.75;2.50;;;;;;;;;;1720014;82;21544;-88
2022/04/27 03:36:27;;;;;;;3.52;2.75;;;;;;;;;;1670583;85;21084;-87
2022/04/27 03:38:55;;;;;;;3.40;2.50;;;;;;;;;;1730266;82;21035;-87
2022/04/27 03:41:23;;;;;;;4.50;2.90;;;;;;;;;;1730146;82;21063;-88
2022/04/27 03:43:51;;;;;;;5.45;2.95;;;;;;;;;;1698069;83;21063;-85
2022/04/27 03:46:19;;;;;;;3.35;2.70;;;;;;;;;;1730166;82;21471;-85
2022/04/27 03:48:47;;;;;;;6.60;3.00;;;;;;;;;;1730242;82;21115;-85
2022/04/27 03:51:14;;;;;;;4.60;2.90;;;;;;;;;;1730125;83;21079;-82
2022/04/27 03:53:41;;;;;;;4.33;3.30;;;;;;;;;;1731476;82;21057;-84
2022/04/27 03:56:09;;;;;;;4.85;3.20;;;;;;;;;;1739967;82;21024;-84
2022/04/27 03:58:36;;;;;;;4.33;3.20;;;;;;;;;;1738012;82;21638;-86
2022/04/27 04:01:03;;;;;;;4.75;2.85;;;;;;;;;;1758361;81;21048;-86
2022/04/27 04:03:29;;;;;;;3.65;2.52;;;;;;;;;;1758965;80;21140;-83
2022/04/27 04:05:57;;;;;;;4.15;3.00;;;;;;;;;;1748037;81;21031;-83
2022/04/27 04:11:26;;;;;;;4.92;3.10;;;;;;;;;;1796618;79;23116;-83
2022/04/27 04:14:01;;;;;;;3.58;2.80;;;;;;;;;;1759247;80;21032;-82
2022/04/27 04:16:39;;;;;;;3.60;2.80;;;;;;;;;;1761065;81;21647;-81
2022/04/27 04:19:24;;;;;;;3.02;2.58;;;;;;;;;;1761809;81;21009;-80
2022/04/27 04:22:01;;;;;;;3.30;2.72;;;;;;;;;;1755210;80;21583;-80
2022/04/27 04:30:18;;;;;;;3.87;2.72;;;;;;;;;;1761650;81;21115;-79
2022/04/27 04:32:47;;;;;;;4.30;2.90;;;;;;;;;;1761149;81;21070;-80
2022/04/27 04:35:25;;;;;;;5.37;2.80;;;;;;;;;;1759288;81;21054;-79
2022/04/27 04:37:51;;;;;;;3.47;2.95;;;;;;;;;;1760483;81;21058;-79
2022/04/27 04:40:17;;;;;;;4.08;2.67;;;;;;;;;;1756858;81;21030;-78
2022/04/27 04:42:44;;;;;;;3.98;3.00;;;;;;;;;;1777164;80;21031;-80
2022/04/27 04:45:10;;;;;;;4.08;2.87;;;;;;;;;;1767708;80;21029;-81
2022/04/27 04:47:55;;;;;;;4.08;2.85;;;;;;;;;;1759401;81;21275;-81
2022/04/27 04:50:43;;;;;;;5.28;2.92;;;;;;;;;;1753643;82;21573;-80
2022/04/27 04:53:23;;;;;;;4.42;2.83;;;;;;;;;;1753246;82;21012;-80
2022/04/27 04:55:57;;;;;;;3.62;2.75;;;;;;;;;;1753619;81;21047;-81
2022/04/27 04:58:42;;;;;;;3.77;2.90;;;;;;;;;;1765259;80;21068;-81
2022/04/27 05:01:27;;;;;;;3.83;3.05;;;;;;;;;;1756224;82;21025;-81
2022/04/27 05:03:56;;;;;;;3.55;2.77;;;;;;;;;;1755741;81;21068;-82
2022/04/27 05:06:32;;;;;;;3.12;2.52;;;;;;;;;;1753396;82;21037;-80
2022/04/27 05:09:03;;;;;;;4.85;2.62;;;;;;;;;;1748037;82;21013;-80
2022/04/27 05:11:48;;;;;;;3.20;2.45;;;;;;;;;;1753329;82;21112;-81
2022/04/27 05:14:20;;;;;;;4.00;2.75;;;;;;;;;;1749632;82;21060;-81
2022/04/27 05:16:57;;;;;;;4.45;2.45;;;;;;;;;;1715614;82;21103;-81
2022/04/27 05:19:25;;;;;;;5.65;2.80;;;;;;;;;;1689563;82;21072;-81
2022/04/27 05:22:06;;;;;;;4.08;2.60;;;;;;;;;;1702722;82;21496;-82
2022/04/27 05:24:38;;;;;;;;;;;;;;;;;;1721116;83;21148;-82
2022/04/27 05:27:07;;;;;;;3.47;2.70;;;;;;;;;;1741540;82;20164;-82
2022/04/27 05:32:43;;;;;;;2.52;2.12;;;;;;;;;;1723040;83;21032;-81
2022/04/27 05:35:27;;;;;;;2.92;2.60;;;;;;;;;;1723505;82;21068;-81
2022/04/27 05:37:59;;;;;;;4.05;3.17;;;;;;;;;;1716255;82;21099;-81
2022/04/27 05:40:45;;;;;;;3.52;2.50;;;;;;;;;;1726697;82;21044;-81
2022/04/27 05:43:16;;;;;;;4.25;2.40;;;;;;;;;;1661726;83;21599;-82
2022/04/27 05:45:46;;;;;;;4.12;2.80;;;;;;;;;;1722751;83;21064;-80
2022/04/27 05:48:21;;;;;;;3.72;2.70;;;;;;;;;;1736902;82;21069;-81
2022/04/27 05:51:02;;;;;;;3.80;2.67;;;;;;;;;;1723985;82;21024;-80
2022/04/27 05:53:41;;;;;;;4.25;2.67;;;;;;;;;;1722006;83;21063;-81
2022/04/27 05:56:26;;;;;;;3.80;2.75;;;;;;;;;;1726033;82;20989;-81
2022/04/27 05:59:11;;;;;;;3.65;2.90;;;;;;;;;;1735555;82;21923;-82
2022/04/27 06:01:39;;;;;;;3.05;2.40;;;;;;;;;;1704870;83;21032;-82
2022/04/27 06:04:07;;;;;;;4.20;2.62;;;;;;;;;;1729114;82;21088;-82
2022/04/27 06:06:36;;;;;;;3.58;2.60;;;;;;;;;;1662650;85;21088;-82
2022/04/27 06:09:04;;;;;;;3.60;2.75;;;;;;;;;;1664379;86;21100;-82
2022/04/27 06:11:34;;;;;;;3.65;2.62;;;;;;;;;;1690411;84;21107;-82
2022/04/27 06:14:14;;;;;;;4.95;2.80;;;;;;;;;;1675867;84;21079;-83
2022/04/27 06:16:46;;;;;;;3.92;2.80;;;;;;;;;;1695351;84;21060;-82
2022/04/27 06:19:14;;;;;;;3.80;2.92;;;;;;;;;;1684250;84;21088;-83
2022/04/27 06:21:41;;;;;;;3.65;2.50;;;;;;;;;;1697143;84;21080;-84
2022/04/27 06:24:08;;;;;;;4.03;2.62;;;;;;;;;;1651789;86;20981;-81
2022/04/27 06:26:37;;;;;;;4.72;2.75;;;;;;;;;;1687070;84;21090;-87
2022/04/27 06:29:03;;;;;;;3.37;2.62;;;;;;;;;;1694650;84;21042;-76
2022/04/27 06:31:31;;;;;;;3.55;2.70;;;;;;;;;;1679978;85;21091;-83
2022/04/27 06:33:58;;;;;;;3.92;2.90;;;;;;;;;;1697436;84;20989;-78
2022/04/27 06:36:25;;;;;;;3.58;2.70;;;;;;;;;;1706663;84;21053;-81
2022/04/27 06:38:52;;;;;;;3.10;2.47;;;;;;;;;;1680634;84;21013;-84
2022/04/27 06:41:20;;;;;;;4.40;3.08;;;;;;;;;;1700923;84;21100;-84
2022/04/27 06:44:06;;;;;;;5.35;2.80;;;;;;;;;;1700213;84;21079;-90
2022/04/27 06:46:37;;;;;;;3.83;3.17;;;;;;;;;;1640779;84;21091;-81
2022/04/27 06:49:22;;;;;;;4.55;2.67;;;;;;;;;;1696074;84;21011;-84
2022/04/27 06:52:08;;;;;;;3.52;2.87;;;;;;;;;;1680071;85;21937;-83
2022/04/27 06:54:53;;;;;;;3.42;2.70;;;;;;;;;;1692932;84;21106;-84
2022/04/27 06:57:26;;;;;;;3.83;2.60;;;;;;;;;;1630533;85;21078;-83
2022/04/27 06:59:53;;;;;;;3.70;2.80;;;;;;;;;;1682795;84;22224;-83
2022/04/27 07:02:20;;;;;;;3.90;2.60;;;;;;;;;;1708395;84;21063;-83
2022/04/27 07:04:52;;;;;;;2.75;2.25;;;;;;;;;;1708360;84;21055;-83
2022/04/27 07:07:16;;;;;;;4.10;2.35;;;;;;;;;;1707952;84;21095;-83
2022/04/27 07:09:43;;;;;;;4.50;2.70;;;;;;;;;;1708067;84;21042;-83
2022/04/27 07:12:13;;;;;;;3.98;2.60;;;;;;;;;;1682914;84;21085;-82
2022/04/27 07:14:39;;;;;;;4.70;2.65;;;;;;;;;;1671106;84;21072;-83
2022/04/27 07:17:06;;;;;;;2.98;2.40;;;;;;;;;;1677051;84;21104;-84
2022/04/27 07:19:33;;;;;;;3.25;2.60;;;;;;;;;;1697406;84;21111;-83
2022/04/27 07:22:00;;;;;;;4.42;2.90;;;;;;;;;;1685266;84;21092;-84
2022/04/27 07:24:26;;;;;;;3.17;2.58;;;;;;;;;;1669241;86;21089;-82
2022/04/27 07:26:56;;;;;;;3.72;2.50;;;;;;;;;;1669393;86;21041;-86
2022/04/27 07:29:23;;;;;;;3.40;2.60;;;;;;;;;;1669994;86;21598;-81
2022/04/27 07:31:49;;;;;;;3.10;2.40;;;;;;;;;;1695949;84;21025;-83
2022/04/27 07:34:17;;;;;;;2.98;2.52;;;;;;;;;;1685265;85;21015;-83
2022/04/27 07:36:43;;;;;;;2.70;2.37;;;;;;;;;;1670305;86;21093;-83
2022/04/27 07:39:09;;;;;;;3.05;2.20;;;;;;;;;;1670455;86;21043;-83
2022/04/27 07:41:36;;;;;;;3.37;2.40;;;;;;;;;;1669561;86;21106;-83
2022/04/27 07:44:02;;;;;;;4.12;2.30;;;;;;;;;;1669725;85;21103;-82
2022/04/27 07:46:30;;;;;;;4.03;2.50;;;;;;;;;;1672320;84;21148;-84
2022/04/27 07:48:56;;;;;;;4.15;2.67;;;;;;;;;;1677818;84;21607;-84
2022/04/27 07:51:22;;;;;;;3.30;2.22;;;;;;;;;;1687491;84;21636;-84
2022/04/27 07:53:49;;;;;;;3.27;2.55;;;;;;;;;;1697631;84;21064;-82
2022/04/27 07:56:15;;;;;;;3.75;2.60;;;;;;;;;;1697958;84;21032;-83
2022/04/27 07:58:41;;;;;;;2.95;2.27;;;;;;;;;;1676404;84;21081;-83
2022/04/27 08:01:08;;;;;;;4.25;2.98;;;;;;;;;;1685668;84;21025;-85
2022/04/27 08:03:35;;;;;;;3.27;2.40;;;;;;;;;;1696439;85;21133;-84
2022/04/27 08:06:04;;;;;;;4.28;2.62;;;;;;;;;;1696986;85;21045;-84
2022/04/27 08:08:30;;;;;;;4.17;2.42;;;;;;;;;;1696697;85;21073;-83
2022/04/27 08:10:58;;;;;;;3.45;2.50;;;;;;;;;;1696552;85;21643;-84
2022/04/27 08:13:26;;;;;;;3.42;2.30;;;;;;;;;;1697510;84;21068;-83
2022/04/27 08:15:51;;;;;;;3.92;3.00;;;;;;;;;;1698033;84;21032;-83
2022/04/27 08:18:19;;;;;;;3.60;2.50;;;;;;;;;;1698191;84;21052;-83
2022/04/27 08:23:34;;;;;;;3.30;2.50;;;;;;;;;;1698297;84;21120;-84
2022/04/27 08:26:02;;;;;;;3.90;2.83;;;;;;;;;;1697891;84;21081;-85
2022/04/27 08:28:29;;;;;;;3.33;2.60;;;;;;;;;;1698504;84;21116;-83
2022/04/27 08:30:56;;;;;;;4.58;2.58;;;;;;;;;;1697957;84;21088;-87
2022/04/27 08:33:22;;;;;;;4.03;2.65;;;;;;;;;;1683245;84;21085;-86
2022/04/27 08:35:48;;;;;;;2.87;2.37;;;;;;;;;;1678083;84;21049;-85
2022/04/27 08:38:15;;;;;;;3.25;2.33;;;;;;;;;;1697965;84;21057;-84
2022/04/27 08:40:42;;;;;;;5.53;2.80;;;;;;;;;;1697592;84;20981;-84
2022/04/27 08:43:09;;;;;;;4.42;2.60;;;;;;;;;;1674985;84;21001;-85
2022/04/27 08:45:38;;;;;;;5.00;3.15;;;;;;;;;;1697300;84;21069;-83
2022/04/27 08:48:04;;;;;;;4.25;2.90;;;;;;;;;;1683694;84;21084;-85
2022/04/27 08:50:32;;;;;;;4.92;2.95;;;;;;;;;;1669808;86;21092;-83
2022/04/27 08:52:58;;;;;;;3.02;2.22;;;;;;;;;;1679307;84;21020;-84
2022/04/27 08:55:29;;;;;;;3.27;2.33;;;;;;;;;;1689728;84;21038;-83
2022/04/27 08:58:13;;;;;;;3.60;2.33;;;;;;;;;;1675881;84;21096;-83
2022/04/27 09:00:40;;;;;;;;;;;;;;;;;;1675019;84;21579;-84
2022/04/27 09:03:24;;;;;;;5.22;2.75;;;;;;;;;;1672493;84;20160;-84
2022/04/27 09:06:02;;;;;;;2.65;2.10;;;;;;;;;;1697999;84;21060;-82
2022/04/27 09:08:30;;;;;;;2.62;2.12;;;;;;;;;;1677707;84;21131;-83
2022/04/27 09:11:16;;;;;;;4.95;2.33;;;;;;;;;;1686187;83;21076;-82
2022/04/27 09:14:00;;;;;;;2.98;2.25;;;;;;;;;;1681115;84;21056;-82
2022/04/27 09:20:46;;;;;;;2.70;2.10;;;;;;;;;;1681142;84;21057;-82
2022/04/27 09:21:54;;;;;;;3.50;2.47;;;;;;;;;;1679822;84;21076;-80
2022/04/27 09:24:22;;;;;;;4.87;3.05;;;;;;;;;;1678778;84;21068;-80
2022/04/27 09:26:59;;;;;;;3.77;2.33;;;;;;;;;;1701509;84;21618;-82
2022/04/27 09:29:26;;;;;;;3.37;1.98;;;;;;;;;;1678525;85;21064;-83
2022/04/27 09:31:56;;;;;;;4.35;2.70;;;;;;;;;;1678600;84;21544;-82
2022/04/27 09:34:27;;;;;;;3.80;2.87;;;;;;;;;;1680466;84;21052;-81
2022/04/27 09:36:54;;;;;;;3.10;2.42;;;;;;;;;;1684594;84;21052;-82
2022/04/27 09:39:27;;;;;;;3.85;2.80;;;;;;;;;;1702942;84;21053;-82
2022/04/27 09:42:04;;;;;;;4.55;2.85;;;;;;;;;;1705710;84;21037;-81
2022/04/27 09:44:32;;;;;;;3.42;2.72;;;;;;;;;;1704527;84;21105;-81
2022/04/27 09:47:02;;;;;;;3.67;2.77;;;;;;;;;;1702936;84;21144;-82
2022/04/27 09:49:28;;;;;;;3.72;2.52;;;;;;;;;;1677963;85;21088;-82
2022/04/27 09:51:55;;;;;;;3.27;2.62;;;;;;;;;;1678234;85;21090;-82
2022/04/27 09:54:21;;;;;;;5.15;2.72;;;;;;;;;;1678372;85;21395;-82
2022/04/27 09:56:48;;;;;;;4.85;3.00;;;;;;;;;;1693086;84;21028;-81
2022/04/27 09:59:15;;;;;;;3.15;2.25;;;;;;;;;;1691858;84;21524;-84
2022/04/27 10:01:41;;;;;;;2.85;2.20;;;;;;;;;;1692337;84;21021;-83
2022/04/27 10:04:07;;;;;;;3.02;2.35;;;;;;;;;;1683796;84;21029;-82
2022/04/27 10:06:35;;;;;;;3.45;2.25;;;;;;;;;;1670013;84;21141;-81
2022/04/27 10:09:03;;;;;;;2.72;2.00;;;;;;;;;;1678473;84;21560;-81
2022/04/27 10:11:32;;;;;;;2.08;1.72;;;;;;;;;;1690324;84;21073;-82
2022/04/27 10:14:00;;;;;;;3.05;2.05;;;;;;;;;;1699777;84;21072;-82
2022/04/27 10:16:26;;;;;;;3.52;2.17;;;;;;;;;;1699609;84;21048;-81
2022/04/27 10:18:52;;;;;;;3.33;2.30;;;;;;;;;;1700152;84;21013;-81
2022/04/27 10:21:39;;;;;;;3.30;2.12;;;;;;;;;;1700172;84;21041;-82
2022/04/27 10:24:07;;;;;;;4.80;2.37;;;;;;;;;;1694955;84;21644;-80
2022/04/27 10:26:34;;;;;;;3.83;2.17;;;;;;;;;;1655944;84;21092;-81
2022/04/27 10:29:00;;;;;;;3.50;2.40;;;;;;;;;;1679253;84;21104;-82
2022/04/27 10:31:28;;;;;;;3.40;2.27;;;;;;;;;;1689993;84;21084;-82
2022/04/27 10:33:56;;;;;;;3.33;2.27;;;;;;;;;;1695462;84;21045;-81
2022/04/27 10:36:25;;;;;;;3.42;2.05;;;;;;;;;;1694361;84;21092;-80
2022/04/27 10:39:10;;;;;;;2.83;2.00;;;;;;;;;;1687919;84;21013;-81
2022/04/27 10:41:36;;;;;;;2.17;1.85;;;;;;;;;;1678437;84;21029;-81
2022/04/27 10:44:02;;;;;;;3.37;2.08;;;;;;;;;;1681736;84;21060;-79
2022/04/27 10:46:43;;;;;;;3.52;2.05;;;;;;;;;;1692959;84;21072;-80
2022/04/27 10:49:23;;;;;;;2.08;1.75;;;;;;;;;;1699224;84;21694;-80
2022/04/27 10:52:05;;;;;;;2.12;1.75;;;;;;;;;;1686160;84;21080;-81
2022/04/27 10:54:33;;;;;;;2.90;2.00;;;;;;;;;;1711286;83;21085;-79
2022/04/27 10:57:16;;;;;;;3.33;2.17;;;;;;;;;;1724028;82;21025;-81
2022/04/27 10:59:43;;;;;;;4.05;2.20;;;;;;;;;;1722462;82;21037;-79
2022/04/27 11:02:27;;;;;;;2.65;2.00;;;;;;;;;;1733558;82;21041;-79
2022/04/27 11:04:54;;;;;;;2.37;1.90;;;;;;;;;;1736140;82;21093;-82
2022/04/27 11:07:25;;;;;;;2.50;1.92;;;;;;;;;;1718569;82;21061;-80
2022/04/27 11:09:54;;;;;;;3.60;2.17;;;;;;;;;;1730528;82;21073;-80
2022/04/27 11:12:21;;;;;;;2.47;1.95;;;;;;;;;;1727535;81;21587;-79
2022/04/27 11:14:48;;;;;;;2.35;1.90;;;;;;;;;;1743542;82;21048;-80
2022/04/27 11:17:28;;;;;;;2.87;1.95;;;;;;;;;;1740278;82;21618;-82
2022/04/27 11:19:56;;;;;;;3.33;2.05;;;;;;;;;;1733207;82;21012;-81
2022/04/27 11:22:22;;;;;;;3.17;1.80;;;;;;;;;;1723920;83;21088;-82
2022/04/27 11:24:53;;;;;;;2.87;1.90;;;;;;;;;;1724260;83;21049;-81
2022/04/27 11:27:26;;;;;;;3.67;2.20;;;;;;;;;;1746394;82;21060;-81
2022/04/27 11:29:53;;;;;;;3.75;2.10;;;;;;;;;;1734686;82;21105;-79
2022/04/27 11:32:19;;;;;;;2.42;1.67;;;;;;;;;;1730801;82;21552;-81
2022/04/27 11:34:47;;;;;;;3.08;1.70;;;;;;;;;;1753878;82;21041;-81
2022/04/27 11:37:15;;;;;;;3.52;2.12;;;;;;;;;;1739541;82;21537;-81
2022/04/27 11:39:41;;;;;;;2.87;2.00;;;;;;;;;;1729275;82;20982;-82
2022/04/27 11:42:12;;;;;;;4.95;2.15;;;;;;;;;;1724232;83;21526;-81
2022/04/27 11:44:39;;;;;;;5.00;2.80;;;;;;;;;;1724680;82;21048;-80
2022/04/27 11:47:08;;;;;;;2.72;1.98;;;;;;;;;;1730797;82;21562;-81
2022/04/27 11:49:34;;;;;;;3.98;2.10;;;;;;;;;;1713818;82;21041;-80
2022/04/27 11:52:01;;;;;;;3.25;2.10;;;;;;;;;;1728230;82;21044;-82
2022/04/27 11:54:27;;;;;;;3.15;2.17;;;;;;;;;;1729382;82;22076;-82
2022/04/27 11:56:57;;;;;;;2.30;2.00;;;;;;;;;;1753541;82;21056;-82
2022/04/27 11:59:24;;;;;;;2.70;1.80;;;;;;;;;;1738461;82;21060;-82
2022/04/27 12:01:54;;;;;;;3.33;1.70;;;;;;;;;;1750339;82;21036;-81
2022/04/27 12:04:20;;;;;;;2.22;1.75;;;;;;;;;;1746778;82;21088;-81
2022/04/27 12:06:48;;;;;;;2.12;1.80;;;;;;;;;;1724020;83;21036;-82
2022/04/27 12:09:16;;;;;;;2.22;1.60;;;;;;;;;;1725167;82;21102;-80
2022/04/27 12:11:42;;;;;;;2.37;1.70;;;;;;;;;;1741294;81;21065;-82
2022/04/27 12:14:08;;;;;;;2.33;1.75;;;;;;;;;;1727341;82;21068;-84
2022/04/27 12:16:35;;;;;;;2.35;1.70;;;;;;;;;;1726449;82;21058;-81
2022/04/27 12:19:00;;;;;;;3.15;2.15;;;;;;;;;;1711507;84;21442;-82
2022/04/27 12:21:28;;;;;;;2.58;2.08;;;;;;;;;;1723051;82;21017;-82
2022/04/27 12:23:56;;;;;;;2.87;1.80;;;;;;;;;;1710337;84;21057;-81
2022/04/27 12:26:25;;;;;;;2.62;2.20;;;;;;;;;;1710765;82;21541;-82
2022/04/27 12:28:51;;;;;;;2.37;1.77;;;;;;;;;;1730433;82;21057;-81
2022/04/27 12:31:19;;;;;;;2.02;1.62;;;;;;;;;;1730182;82;21041;-82
2022/04/27 12:33:48;;;;;;;2.17;1.85;;;;;;;;;;1711918;82;21025;-81
2022/04/27 12:39:11;;;;;;;2.17;1.70;;;;;;;;;;1730338;82;20994;-80
2022/04/27 12:41:44;;;;;;;1.82;1.60;;;;;;;;;;1740056;82;21034;-81
2022/04/27 12:44:11;;;;;;;4.83;2.55;;;;;;;;;;1740325;82;21088;-82
2022/04/27 12:46:38;;;;;;;3.40;2.25;;;;;;;;;;1740141;82;21001;-82
2022/04/27 12:49:05;;;;;;;4.20;1.92;;;;;;;;;;1728897;82;21005;-81
2022/04/27 12:51:35;;;;;;;2.30;1.70;;;;;;;;;;1716308;82;21073;-81
2022/04/27 12:54:03;;;;;;;2.27;1.75;;;;;;;;;;1721032;82;21450;-81
2022/04/27 12:56:32;;;;;;;2.27;1.80;;;;;;;;;;1728881;82;21052;-82
2022/04/27 12:59:05;;;;;;;2.83;1.80;;;;;;;;;;1710669;83;20985;-81
2022/04/27 13:01:32;;;;;;;7.92;2.90;;;;;;;;;;1710294;83;21096;-83
2022/04/27 13:03:59;;;;;;;4.05;2.52;;;;;;;;;;1724287;82;21603;-81
2022/04/27 13:06:26;;;;;;;5.85;2.20;;;;;;;;;;1735922;82;21030;-80
2022/04/27 13:08:54;;;;;;;2.37;1.72;;;;;;;;;;1737250;82;21559;-83
2022/04/27 13:14:06;;;;;;;3.83;2.40;;;;;;;;;;1710160;84;21114;-81
2022/04/27 13:16:32;;;;;;;5.12;2.30;;;;;;;;;;1726451;82;21021;-81
2022/04/27 13:18:58;;;;;;;3.42;1.95;;;;;;;;;;1710733;84;21066;-82
2022/04/27 13:21:24;;;;;;;2.92;2.02;;;;;;;;;;1710699;84;21102;-83
2022/04/27 13:23:52;;;;;;;3.52;2.20;;;;;;;;;;1710668;84;21604;-81
2022/04/27 13:26:19;;;;;;;4.50;2.77;;;;;;;;;;1710619;84;21152;-82
2022/04/27 13:28:45;;;;;;;5.58;3.30;;;;;;;;;;1710970;84;21037;-82
2022/04/27 13:31:13;;;;;;;5.42;3.20;;;;;;;;;;1723964;82;21523;-83
2022/04/27 13:33:40;;;;;;;7.65;2.72;;;;;;;;;;1739554;82;21057;-82
2022/04/27 13:36:06;;;;;;;4.75;2.83;;;;;;;;;;1725954;82;21068;-82
2022/04/27 13:38:32;;;;;;;3.17;2.40;;;;;;;;;;1728381;82;21609;-82
2022/04/27 13:40:59;;;;;;;5.10;2.40;;;;;;;;;;1736441;82;21093;-84
2022/04/27 13:43:27;;;;;;;6.15;2.85;;;;;;;;;;1710788;84;21377;-83
2022/04/27 13:45:55;;;;;;;3.90;2.75;;;;;;;;;;1692290;84;21058;-83
2022/04/27 13:48:21;;;;;;;3.37;2.20;;;;;;;;;;1733615;82;21081;-83
2022/04/27 13:50:48;;;;;;;4.83;2.27;;;;;;;;;;1727251;82;21029;-81
2022/04/27 13:53:15;;;;;;;4.10;2.42;;;;;;;;;;1716800;82;21033;-83
2022/04/27 13:55:42;;;;;;;3.35;2.20;;;;;;;;;;1710613;84;21544;-82
2022/04/27 13:58:08;;;;;;;2.90;2.08;;;;;;;;;;1710657;84;21112;-83
2022/04/27 14:00:35;;;;;;;3.42;2.27;;;;;;;;;;1710433;84;21078;-81
2022/04/27 14:03:02;;;;;;;2.58;1.90;;;;;;;;;;1720626;82;21061;-83
2022/04/27 14:05:31;;;;;;;3.65;2.00;;;;;;;;;;1726165;82;21053;-80
2022/04/27 14:07:57;;;;;;;3.45;1.70;;;;;;;;;;1714866;82;21365;-80
2022/04/27 14:10:24;;;;;;;3.15;1.90;;;;;;;;;;1717830;82;21065;-82
2022/04/27 14:15:36;;;;;;;3.95;2.00;;;;;;;;;;1733326;82;21060;-82
2022/04/27 14:18:13;;;;;;;7.70;2.20;;;;;;;;;;1744806;82;21083;-81
2022/04/27 14:20:41;;;;;;;1.77;1.67;;;;;;;;;;1726992;82;21052;-81
2022/04/27 14:23:10;;;;;;;3.20;2.00;;;;;;;;;;1723977;82;21407;-81
2022/04/27 14:25:37;;;;;;;3.02;1.60;;;;;;;;;;1723922;83;21064;-82
2022/04/27 14:28:04;;;;;;;3.02;1.98;;;;;;;;;;1732272;82;21540;-81
2022/04/27 14:30:30;;;;;;;2.33;1.70;;;;;;;;;;1753582;82;21033;-82
2022/04/27 14:32:56;;;;;;;2.98;1.87;;;;;;;;;;1745450;82;20989;-82
2022/04/27 14:35:22;;;;;;;3.75;1.70;;;;;;;;;;1743166;82;21088;-82
2022/04/27 14:37:50;;;;;;;3.05;1.90;;;;;;;;;;1745090;82;21045;-82
2022/04/27 14:40:16;;;;;;;2.22;1.72;;;;;;;;;;1748905;82;21072;-81
2022/04/27 14:42:46;;;;;;;3.58;2.10;;;;;;;;;;1733557;82;21483;-83
2022/04/27 14:45:14;;;;;;;2.42;1.87;;;;;;;;;;1697987;82;21082;-82
2022/04/27 14:47:40;;;;;;;2.72;1.80;;;;;;;;;;1669486;85;21100;-81
2022/04/27 14:50:07;;;;;;;2.85;1.80;;;;;;;;;;1695553;84;21032;-81
2022/04/27 14:52:33;;;;;;;3.98;2.08;;;;;;;;;;1704892;84;21207;-80
2022/04/27 14:55:00;;;;;;;5.45;3.15;;;;;;;;;;1679454;84;21088;-81
2022/04/27 14:57:26;;;;;;;7.40;4.00;;;;;;;;;;1694044;84;21072;-81
2022/04/27 14:59:53;;;;;;;2.98;1.90;;;;;;;;;;1679232;84;21111;-82
2022/04/27 15:02:20;;;;;;;2.67;1.77;;;;;;;;;;1680435;84;21018;-82
2022/04/27 15:04:47;;;;;;;2.72;1.95;;;;;;;;;;1680365;84;21121;-78
2022/04/27 15:07:13;;;;;;;3.90;1.75;;;;;;;;;;1677833;85;21041;-75
2022/04/27 15:09:41;;;;;;;5.28;2.30;;;;;;;;;;1677528;85;21065;-75
2022/04/27 15:12:09;;;;;;;1.90;1.62;;;;;;;;;;1677961;85;21080;-75
2022/04/27 15:14:36;;;;;;;2.62;1.75;;;;;;;;;;1677505;85;21073;-76
2022/04/27 15:17:04;;;;;;;1.92;1.70;;;;;;;;;;1677418;85;21037;-75
2022/04/27 15:19:31;;;;;;;3.10;1.70;;;;;;;;;;1677644;85;21121;-76
2022/04/27 15:24:43;;;;;;;3.25;2.25;;;;;;;;;;1677786;85;21065;-74
2022/04/27 15:27:11;;;;;;;2.72;1.98;;;;;;;;;;1678093;85;21080;-76
2022/04/27 15:29:38;;;;;;;6.20;3.72;;;;;;;;;;1677721;85;21073;-74
2022/04/27 15:32:05;;;;;;;7.10;3.60;;;;;;;;;;1677835;85;21592;-75